Time;durP1;ratioP1;P1;durP2;ratioP2;P2;SDS_P1;SDS_P2;PMS_P1;PMS_P2;Temp;Humidity;BMP_temperature;BMP_pressure;BME280_temperature;BME280_humidity;BME280_pressure;Samples;Min_cycle;Max_cycle;Signal;HPM_P1;HPM_P2
2022/03/07 00:00:15;;;;;;;7.83;1.93;;;25.80;99.90;;;;;;4918393;29;20284;-73
2022/03/07 00:02:42;;;;;;;8.67;2.40;;;25.70;99.90;;;;;;4918850;29;20241;-72
2022/03/07 00:05:10;;;;;;;11.47;2.30;;;25.40;99.90;;;;;;4918068;29;20189;-72
2022/03/07 00:07:37;;;;;;;12.90;2.40;;;25.30;99.90;;;;;;4918264;29;20182;-71
2022/03/07 00:10:05;;;;;;;14.07;2.83;;;25.20;99.90;;;;;;4915250;29;20197;-70
2022/03/07 00:12:32;;;;;;;12.97;2.33;;;25.10;99.90;;;;;;4916587;29;20570;-70
2022/03/07 00:14:59;;;;;;;11.00;2.60;;;25.00;99.90;;;;;;4916811;29;20244;-70
2022/03/07 00:17:27;;;;;;;13.90;3.07;;;25.00;99.90;;;;;;4917046;29;20247;-71
2022/03/07 00:19:54;;;;;;;11.87;3.10;;;25.10;99.90;;;;;;4917124;29;20213;-70
2022/03/07 00:22:21;;;;;;;16.73;3.33;;;25.10;99.90;;;;;;4917176;29;20177;-70
2022/03/07 00:24:49;;;;;;;16.73;3.27;;;25.20;99.90;;;;;;4917088;29;20758;-71
2022/03/07 00:27:16;;;;;;;9.70;2.30;;;25.20;99.90;;;;;;4916773;29;20186;-69
2022/03/07 00:29:43;;;;;;;9.80;2.70;;;25.20;99.90;;;;;;4913350;29;20192;-70
2022/03/07 00:32:10;;;;;;;13.27;2.63;;;25.10;99.90;;;;;;4911383;29;20654;-70
2022/03/07 00:34:38;;;;;;;13.67;2.70;;;25.10;99.90;;;;;;4916720;29;20577;-70
2022/03/07 00:37:05;;;;;;;8.13;2.93;;;25.00;99.90;;;;;;4916396;29;20177;-70
2022/03/07 00:39:33;;;;;;;9.43;2.50;;;25.00;99.90;;;;;;4916743;29;20217;-70
2022/03/07 00:42:00;;;;;;;14.93;2.70;;;24.90;99.90;;;;;;4916386;29;20184;-70
2022/03/07 00:44:27;;;;;;;13.70;2.90;;;24.80;99.90;;;;;;4914600;29;20192;-69
2022/03/07 00:46:55;;;;;;;14.60;3.50;;;24.70;99.90;;;;;;4915656;29;20177;-70
2022/03/07 00:49:22;;;;;;;12.07;2.73;;;24.70;99.90;;;;;;4916631;29;20520;-71
2022/03/07 00:51:49;;;;;;;7.33;2.53;;;24.70;99.90;;;;;;4916496;29;20181;-71
2022/03/07 00:54:17;;;;;;;10.73;2.53;;;24.60;99.90;;;;;;4916184;29;20260;-71
2022/03/07 00:56:44;;;;;;;14.23;2.67;;;24.60;99.90;;;;;;4914898;29;20233;-71
2022/03/07 00:59:11;;;;;;;9.00;2.10;;;24.50;99.90;;;;;;4913932;29;20702;-71
2022/03/07 01:01:38;;;;;;;12.67;2.53;;;24.50;99.90;;;;;;4915231;29;20276;-69
2022/03/07 01:04:06;;;;;;;8.97;2.63;;;24.50;99.90;;;;;;4915037;29;20591;-70
2022/03/07 01:06:33;;;;;;;10.90;2.97;;;24.40;99.90;;;;;;4913633;29;20185;-70
2022/03/07 01:09:00;;;;;;;13.80;2.93;;;24.30;99.90;;;;;;4913810;29;20200;-69
2022/03/07 01:11:28;;;;;;;12.17;2.67;;;24.30;99.90;;;;;;4915895;29;20250;-70
2022/03/07 01:13:55;;;;;;;13.00;3.47;;;24.30;99.90;;;;;;4916020;29;21022;-70
2022/03/07 01:16:22;;;;;;;13.93;2.90;;;24.30;99.90;;;;;;4916064;29;20272;-70
2022/03/07 01:18:50;;;;;;;9.30;2.93;;;24.40;99.90;;;;;;4915997;29;20522;-70
2022/03/07 01:21:17;;;;;;;10.97;2.30;;;24.50;99.90;;;;;;4916153;29;20193;-70
2022/03/07 01:23:44;;;;;;;14.23;2.40;;;24.60;99.90;;;;;;4916032;29;20260;-70
2022/03/07 01:26:12;;;;;;;8.60;2.20;;;24.40;99.90;;;;;;4916056;29;20297;-70
2022/03/07 01:28:39;;;;;;;10.27;2.60;;;24.50;99.90;;;;;;4915736;29;20181;-71
2022/03/07 01:31:08;;;;;;;8.47;2.23;;;24.50;99.90;;;;;;4916092;29;20173;-70
2022/03/07 01:33:36;;;;;;;11.37;2.77;;;24.40;99.90;;;;;;4910367;29;20739;-70
2022/03/07 01:36:03;;;;;;;11.60;2.60;;;24.30;99.90;;;;;;4899788;29;20190;-71
2022/03/07 01:38:30;;;;;;;15.43;2.90;;;24.20;99.90;;;;;;4915720;29;20197;-70
2022/03/07 01:40:58;;;;;;;12.17;2.47;;;24.20;99.90;;;;;;4915602;29;20224;-70
2022/03/07 01:43:25;;;;;;;12.67;2.80;;;24.30;99.90;;;;;;4915650;29;20677;-70
2022/03/07 01:45:53;;;;;;;11.60;2.13;;;24.20;99.90;;;;;;4915733;29;20185;-69
2022/03/07 01:48:20;;;;;;;13.30;2.33;;;24.30;99.90;;;;;;4915519;29;20185;-70
2022/03/07 01:50:48;;;;;;;13.30;2.67;;;24.40;99.90;;;;;;4915776;29;20212;-71
2022/03/07 01:53:16;;;;;;;11.10;2.70;;;24.40;99.90;;;;;;4915547;29;20590;-70
2022/03/07 01:55:43;;;;;;;11.17;2.80;;;24.50;99.90;;;;;;4915606;29;20189;-71
2022/03/07 01:58:11;;;;;;;11.37;2.30;;;24.50;99.90;;;;;;4915457;29;20661;-71
2022/03/07 02:00:39;;;;;;;11.40;3.00;;;24.50;99.90;;;;;;4915661;29;20319;-71
2022/03/07 02:03:08;;;;;;;11.67;2.37;;;24.60;99.90;;;;;;4915709;29;20188;-70
2022/03/07 02:05:35;;;;;;;7.00;2.60;;;24.70;99.90;;;;;;4916628;29;20185;-72
2022/03/07 02:08:02;;;;;;;9.60;2.40;;;24.80;99.90;;;;;;4918996;29;20185;-72
2022/03/07 02:10:30;;;;;;;6.53;1.93;;;24.80;99.90;;;;;;4919283;29;20185;-71
2022/03/07 02:12:57;;;;;;;9.23;1.93;;;24.80;99.90;;;;;;4919485;29;20185;-71
2022/03/07 02:15:25;;;;;;;10.63;2.33;;;25.00;99.90;;;;;;4919324;29;20320;-70
2022/03/07 02:17:52;;;;;;;8.40;2.00;;;25.10;99.90;;;;;;4919293;29;20189;-70
2022/03/07 02:20:19;;;;;;;10.13;2.63;;;25.20;99.90;;;;;;4919331;29;20221;-71
2022/03/07 02:22:47;;;;;;;4.83;1.90;;;25.40;99.90;;;;;;4919297;29;20232;-72
2022/03/07 02:25:14;;;;;;;6.80;2.00;;;25.40;99.90;;;;;;4919230;29;20181;-71
2022/03/07 02:27:41;;;;;;;6.77;1.73;;;25.50;99.90;;;;;;4918463;29;20189;-71
2022/03/07 02:30:10;;;;;;;6.83;1.87;;;25.50;99.90;;;;;;4919181;29;20219;-71
2022/03/07 02:32:37;;;;;;;6.63;1.80;;;25.60;99.90;;;;;;4918829;29;20189;-71
2022/03/07 02:35:06;;;;;;;7.17;2.17;;;25.50;99.90;;;;;;4919149;29;20220;-71
2022/03/07 02:37:33;;;;;;;6.27;1.87;;;25.50;99.90;;;;;;4918790;29;20185;-71
2022/03/07 02:40:01;;;;;;;7.60;2.27;;;25.50;99.90;;;;;;4918871;29;20221;-71
2022/03/07 02:42:28;;;;;;;5.37;1.80;;;25.70;99.90;;;;;;4917592;29;20279;-71
2022/03/07 02:44:55;;;;;;;8.07;2.00;;;25.60;99.90;;;;;;4919009;29;20185;-71
2022/03/07 02:47:23;;;;;;;8.50;2.10;;;25.70;99.90;;;;;;4918626;29;20636;-70
2022/03/07 02:49:51;;;;;;;9.50;1.87;;;25.80;99.90;;;;;;4918595;29;20630;-70
2022/03/07 02:52:18;;;;;;;5.70;2.17;;;25.80;99.90;;;;;;4918748;29;20185;-71
2022/03/07 02:54:46;;;;;;;6.57;1.80;;;25.70;99.90;;;;;;4918730;29;20182;-71
2022/03/07 02:57:13;;;;;;;8.00;1.90;;;25.70;99.90;;;;;;4918141;29;20232;-71
2022/03/07 02:59:40;;;;;;;2.50;1.50;;;25.70;99.90;;;;;;4918333;29;20646;-71
2022/03/07 03:02:08;;;;;;;9.03;2.40;;;25.50;99.90;;;;;;4918686;29;20173;-71
2022/03/07 03:04:36;;;;;;;37.80;22.83;;;25.20;99.90;;;;;;4916739;29;20189;-71
2022/03/07 03:07:04;;;;;;;14.17;7.70;;;25.00;99.90;;;;;;4918161;29;20249;-71
2022/03/07 03:09:31;;;;;;;8.17;3.27;;;24.70;99.90;;;;;;4918024;29;20185;-70
2022/03/07 03:11:58;;;;;;;6.30;2.50;;;24.70;99.90;;;;;;4918453;29;20599;-69
2022/03/07 03:14:26;;;;;;;8.47;2.30;;;24.80;99.90;;;;;;4918375;29;20185;-69
2022/03/07 03:16:53;;;;;;;5.07;1.80;;;24.80;99.90;;;;;;4918168;29;20722;-69
2022/03/07 03:19:21;;;;;;;6.83;1.77;;;24.90;99.90;;;;;;4916874;29;20229;-69
2022/03/07 03:21:48;;;;;;;7.57;1.97;;;24.80;99.90;;;;;;4918053;29;20193;-69
2022/03/07 03:24:16;;;;;;;6.70;2.60;;;24.80;99.90;;;;;;4918177;29;20678;-69
2022/03/07 03:26:43;;;;;;;8.20;1.90;;;25.10;99.90;;;;;;4917940;29;20200;-69
2022/03/07 03:29:11;;;;;;;6.40;1.87;;;25.20;99.90;;;;;;4917931;29;20193;-71
2022/03/07 03:31:38;;;;;;;5.93;1.60;;;24.90;99.90;;;;;;4917831;29;20674;-71
2022/03/07 03:34:05;;;;;;;7.07;1.87;;;25.40;99.90;;;;;;4916140;29;20202;-71
2022/03/07 03:36:34;;;;;;;3.90;1.47;;;25.90;99.90;;;;;;4917530;29;20239;-70
2022/03/07 03:39:01;;;;;;;3.43;1.40;;;26.40;99.90;;;;;;4917062;29;20245;-71
2022/03/07 03:41:29;;;;;;;6.33;1.43;;;26.60;99.90;;;;;;4917562;29;20248;-70
2022/03/07 03:43:56;;;;;;;5.20;1.63;;;26.50;99.90;;;;;;4915208;29;20674;-71
2022/03/07 03:46:23;;;;;;;4.10;1.33;;;26.30;99.90;;;;;;4915785;29;20189;-70
2022/03/07 03:48:51;;;;;;;5.37;1.30;;;26.00;99.90;;;;;;4915568;29;20970;-71
2022/03/07 03:51:18;;;;;;;5.67;1.70;;;25.80;99.90;;;;;;4914601;29;20197;-70
2022/03/07 03:53:45;;;;;;;5.20;1.43;;;25.50;99.90;;;;;;4914340;29;20563;-70
2022/03/07 03:56:13;;;;;;;3.67;1.60;;;25.70;99.90;;;;;;4914260;29;20196;-70
2022/03/07 03:58:40;;;;;;;6.03;1.23;;;25.80;99.90;;;;;;4915921;29;20194;-70
2022/03/07 04:01:07;;;;;;;5.60;1.70;;;25.80;99.90;;;;;;4917442;29;20256;-71
2022/03/07 04:03:35;;;;;;;6.03;1.70;;;25.60;99.90;;;;;;4917527;29;20181;-70
2022/03/07 04:06:04;;;;;;;8.63;2.20;;;25.50;99.90;;;;;;4917238;29;20264;-71
2022/03/07 04:08:33;;;;;;;6.37;1.80;;;25.70;99.90;;;;;;4915351;29;20209;-70
2022/03/07 04:11:00;;;;;;;7.13;1.70;;;26.00;99.90;;;;;;4917273;29;20192;-71
2022/03/07 04:13:28;;;;;;;7.03;2.00;;;26.30;99.90;;;;;;4915911;29;20233;-71
2022/03/07 04:15:55;;;;;;;8.80;2.23;;;26.90;99.90;;;;;;4916826;29;20271;-71
2022/03/07 04:18:22;;;;;;;6.60;1.90;;;27.60;99.90;;;;;;4915357;29;20208;-70
2022/03/07 04:20:50;;;;;;;9.37;2.03;;;27.70;99.90;;;;;;4916627;29;20236;-70
2022/03/07 04:23:20;;;;;;;9.63;2.10;;;27.60;99.90;;;;;;4917057;29;20292;-70
2022/03/07 04:25:49;;;;;;;7.90;1.73;;;28.00;99.90;;;;;;4916854;29;20592;-71
2022/03/07 04:28:16;;;;;;;7.23;1.60;;;28.30;99.90;;;;;;4915917;29;20388;-72
2022/03/07 04:30:43;;;;;;;9.77;2.23;;;28.00;99.90;;;;;;4916850;29;20181;-70
2022/03/07 04:33:11;;;;;;;10.37;2.23;;;27.30;99.90;;;;;;4916813;29;20198;-70
2022/03/07 04:35:39;;;;;;;7.63;1.77;;;26.80;99.90;;;;;;4916787;29;20268;-70
2022/03/07 04:38:06;;;;;;;11.00;2.40;;;26.40;99.90;;;;;;4908411;29;20913;-70
2022/03/07 04:40:34;;;;;;;6.03;2.43;;;26.10;99.90;;;;;;4916248;29;20217;-70
2022/03/07 04:43:01;;;;;;;11.37;2.30;;;26.10;99.90;;;;;;4912256;29;20715;-70
2022/03/07 04:45:29;;;;;;;10.97;2.30;;;26.00;99.90;;;;;;4916430;29;20197;-70
2022/03/07 04:47:56;;;;;;;13.80;2.73;;;26.10;99.90;;;;;;4916174;29;20200;-70
2022/03/07 04:50:24;;;;;;;13.13;3.20;;;26.50;99.90;;;;;;4916558;29;20216;-70
2022/03/07 04:52:51;;;;;;;17.60;2.50;;;26.80;99.90;;;;;;4916354;29;20192;-69
2022/03/07 04:55:18;;;;;;;7.97;2.13;;;27.30;99.90;;;;;;4916393;29;20599;-69
2022/03/07 04:57:46;;;;;;;12.93;2.60;;;27.60;99.90;;;;;;4915950;29;20233;-69
2022/03/07 05:00:14;;;;;;;12.87;3.33;;;28.20;99.90;;;;;;4916186;29;20224;-69
2022/03/07 05:02:41;;;;;;;12.40;2.93;;;28.50;99.90;;;;;;4916261;29;20197;-69
2022/03/07 05:05:09;;;;;;;5.73;1.73;;;28.50;99.90;;;;;;4916321;29;20232;-69
2022/03/07 05:07:36;;;;;;;13.37;2.63;;;28.70;99.90;;;;;;4915817;29;20714;-69
2022/03/07 05:10:04;;;;;;;13.80;3.10;;;28.90;99.90;;;;;;4916289;29;20948;-70
2022/03/07 05:12:32;;;;;;;9.67;2.03;;;28.90;99.90;;;;;;4913933;29;20569;-69
2022/03/07 05:14:59;;;;;;;17.70;2.77;;;28.60;99.90;;;;;;4916246;29;20177;-69
2022/03/07 05:17:26;;;;;;;10.73;2.47;;;28.20;99.90;;;;;;4915829;29;20189;-70
2022/03/07 05:19:54;;;;;;;16.53;2.90;;;27.80;99.90;;;;;;4915842;29;20219;-70
2022/03/07 05:22:39;;;;;;;9.30;2.60;;;26.80;99.90;;;;;;4915726;29;20248;-70
2022/03/07 05:25:07;;;;;;;13.77;2.80;;;26.30;99.90;;;;;;4916021;29;20205;-70
2022/03/07 05:27:34;;;;;;;14.63;2.40;;;26.20;99.90;;;;;;4915758;29;20188;-70
2022/03/07 05:30:02;;;;;;;12.63;2.47;;;26.10;99.90;;;;;;4915624;29;20290;-70
2022/03/07 05:32:29;;;;;;;17.37;2.80;;;26.10;99.90;;;;;;4915506;29;20188;-70
2022/03/07 05:34:58;;;;;;;13.83;2.90;;;26.00;99.90;;;;;;4915468;29;20647;-69
2022/03/07 05:37:25;;;;;;;15.47;2.33;;;26.10;99.90;;;;;;4915190;29;20189;-71
2022/03/07 05:39:53;;;;;;;11.47;2.43;;;26.20;99.90;;;;;;4914638;29;20288;-70
2022/03/07 05:42:23;;;;;;;16.53;2.70;;;26.30;99.90;;;;;;4915732;29;20318;-70
2022/03/07 05:44:59;;;;;;;17.20;3.20;;;26.20;99.90;;;;;;4915187;29;20225;-70
2022/03/07 05:47:26;;;;;;;14.97;3.43;;;26.30;99.90;;;;;;4915332;29;20198;-70
2022/03/07 05:49:54;;;;;;;8.27;2.20;;;26.40;99.90;;;;;;4915466;29;20193;-70
2022/03/07 05:52:21;;;;;;;12.57;2.70;;;26.50;99.90;;;;;;4915741;29;20662;-69
2022/03/07 05:54:49;;;;;;;15.20;2.73;;;26.40;99.90;;;;;;4915583;29;20674;-70
2022/03/07 05:57:17;;;;;;;8.93;1.90;;;26.40;99.90;;;;;;4915039;29;20280;-70
2022/03/07 05:59:44;;;;;;;12.37;2.47;;;26.40;99.90;;;;;;4915174;29;20253;-69
2022/03/07 06:02:12;;;;;;;14.60;2.67;;;26.30;99.90;;;;;;4915302;29;20714;-70
2022/03/07 06:05:25;;;;;;;9.97;1.73;;;26.40;99.90;;;;;;4915173;29;20187;-70
2022/03/07 06:07:52;;;;;;;8.00;1.23;;;26.40;99.90;;;;;;4915093;29;20280;-70
2022/03/07 06:10:20;;;;;;;5.33;1.83;;;26.20;99.90;;;;;;4915537;29;20188;-69
2022/03/07 06:16:09;;;;;;;6.43;1.63;;;26.10;99.90;;;;;;4895728;29;20213;-70
2022/03/07 06:18:37;;;;;;;9.93;1.93;;;26.20;99.90;;;;;;4896696;29;20222;-69
2022/03/07 06:21:05;;;;;;;6.93;1.70;;;26.00;99.90;;;;;;4896532;29;20652;-69
2022/03/07 06:23:32;;;;;;;10.50;2.07;;;26.00;99.90;;;;;;4896774;29;20182;-69
2022/03/07 06:26:00;;;;;;;13.37;2.40;;;26.00;99.90;;;;;;4914926;29;20201;-69
2022/03/07 06:28:27;;;;;;;11.13;2.47;;;25.90;99.90;;;;;;4915188;29;20344;-68
2022/03/07 06:30:55;;;;;;;13.07;2.47;;;25.70;99.90;;;;;;4915247;29;20213;-68
2022/03/07 06:33:22;;;;;;;15.53;2.20;;;25.70;99.90;;;;;;4915206;29;20276;-69
2022/03/07 06:35:49;;;;;;;15.30;2.90;;;25.60;99.90;;;;;;4914842;29;20553;-68
2022/03/07 06:38:18;;;;;;;18.10;3.43;;;25.50;99.90;;;;;;4915497;29;20209;-69
2022/03/07 06:40:45;;;;;;;14.17;3.07;;;25.20;99.90;;;;;;4915238;29;20292;-69
2022/03/07 06:43:13;;;;;;;17.33;2.80;;;25.10;99.90;;;;;;4913908;29;20196;-70
2022/03/07 06:45:40;;;;;;;18.53;2.97;;;25.00;99.90;;;;;;4915029;29;20213;-70
2022/03/07 06:48:08;;;;;;;14.50;2.90;;;24.90;99.90;;;;;;4915480;29;20182;-69
2022/03/07 06:50:35;;;;;;;19.07;3.87;;;24.90;99.90;;;;;;4915346;29;20274;-69
2022/03/07 06:53:02;;;;;;;16.60;3.07;;;24.80;99.90;;;;;;4918364;29;20210;-70
2022/03/07 06:55:30;;;;;;;14.80;3.70;;;24.80;99.90;;;;;;4918060;29;20186;-69
2022/03/07 06:57:57;;;;;;;16.33;3.30;;;24.70;99.90;;;;;;4918309;29;20648;-69
2022/03/07 07:00:25;;;;;;;16.67;3.23;;;24.70;99.90;;;;;;4918591;29;20256;-69
2022/03/07 07:02:52;;;;;;;25.43;3.90;;;24.70;99.90;;;;;;4918583;29;20184;-69
2022/03/07 07:05:19;;;;;;;26.27;3.83;;;24.60;99.90;;;;;;4917797;29;20216;-69
2022/03/07 07:07:47;;;;;;;19.87;3.87;;;24.60;99.90;;;;;;4918046;29;20189;-70
2022/03/07 07:10:18;;;;;;;15.50;3.00;;;24.60;99.90;;;;;;4917846;29;20185;-69
2022/03/07 07:12:49;;;;;;;15.30;3.40;;;24.60;99.90;;;;;;4918087;29;20208;-70
2022/03/07 07:15:17;;;;;;;22.10;4.23;;;24.60;99.90;;;;;;4916935;29;20639;-69
2022/03/07 07:17:45;;;;;;;20.47;3.57;;;24.50;99.90;;;;;;4916595;29;20201;-69
2022/03/07 07:20:13;;;;;;;16.47;3.83;;;24.50;99.90;;;;;;4915973;29;20209;-69
2022/03/07 07:22:41;;;;;;;20.67;3.80;;;24.50;99.90;;;;;;4916364;29;20227;-69
2022/03/07 07:25:10;;;;;;;23.90;3.20;;;24.40;99.90;;;;;;4916599;29;20173;-69
2022/03/07 07:27:38;;;;;;;20.57;3.57;;;24.40;99.90;;;;;;4916452;29;20192;-70
2022/03/07 07:30:08;;;;;;;20.47;3.83;;;24.30;99.90;;;;;;4916296;29;20644;-70
2022/03/07 07:32:39;;;;;;;18.70;3.57;;;24.30;99.90;;;;;;4916234;29;20190;-70
2022/03/07 07:35:07;;;;;;;21.10;3.40;;;24.20;99.90;;;;;;4917855;29;20643;-70
2022/03/07 07:37:38;;;;;;;23.13;4.00;;;24.20;99.90;;;;;;4917983;29;20185;-71
2022/03/07 07:40:07;;;;;;;22.07;4.10;;;24.20;99.90;;;;;;4917781;29;20236;-71
2022/03/07 07:42:35;;;;;;;22.33;4.10;;;24.10;99.90;;;;;;4917771;29;20537;-71
2022/03/07 07:45:04;;;;;;;20.17;4.20;;;24.10;99.90;;;;;;4917724;29;20265;-71
2022/03/07 07:47:32;;;;;;;30.73;4.83;;;24.00;99.90;;;;;;4917400;29;20193;-71
2022/03/07 07:49:59;;;;;;;25.43;4.47;;;24.00;99.90;;;;;;4917605;29;20651;-71
2022/03/07 07:52:27;;;;;;;25.80;4.70;;;23.90;99.90;;;;;;4917548;29;20193;-71
2022/03/07 07:54:55;;;;;;;19.63;4.00;;;23.90;99.90;;;;;;4917178;29;20698;-71
2022/03/07 07:57:22;;;;;;;16.70;3.47;;;23.80;99.90;;;;;;4916930;29;20687;-70
2022/03/07 07:59:50;;;;;;;11.87;3.50;;;23.80;99.90;;;;;;4917059;29;20221;-71
2022/03/07 08:02:18;;;;;;;21.63;3.93;;;23.70;99.90;;;;;;4916651;29;20603;-70
2022/03/07 08:04:46;;;;;;;18.73;4.10;;;23.60;99.90;;;;;;4915903;29;20570;-70
2022/03/07 08:07:13;;;;;;;13.60;3.57;;;23.60;99.90;;;;;;4914461;29;20177;-70
2022/03/07 08:09:41;;;;;;;22.30;4.10;;;23.60;99.90;;;;;;4916943;29;20920;-68
2022/03/07 08:12:10;;;;;;;14.83;3.60;;;23.50;99.90;;;;;;4916494;29;20196;-69
2022/03/07 08:14:38;;;;;;;19.10;3.87;;;23.50;99.90;;;;;;4916494;29;20216;-70
2022/03/07 08:17:06;;;;;;;15.60;3.27;;;23.50;99.90;;;;;;4916575;29;20209;-69
2022/03/07 08:19:34;;;;;;;15.37;3.60;;;23.50;99.90;;;;;;4914204;29;20237;-71
2022/03/07 08:22:02;;;;;;;24.00;4.00;;;23.60;99.90;;;;;;4916699;29;20195;-70
2022/03/07 08:24:30;;;;;;;17.67;4.07;;;23.60;99.90;;;;;;4916466;29;20248;-69
2022/03/07 08:26:58;;;;;;;13.83;3.53;;;23.50;99.90;;;;;;4916005;29;20309;-70
2022/03/07 08:29:26;;;;;;;14.30;2.87;;;23.60;99.90;;;;;;4915287;29;20667;-69
2022/03/07 08:31:53;;;;;;;12.70;3.20;;;23.60;99.90;;;;;;4915681;29;20719;-70
2022/03/07 08:34:21;;;;;;;13.77;3.20;;;23.60;99.90;;;;;;4915927;29;20659;-70
2022/03/07 08:36:49;;;;;;;14.37;3.80;;;23.50;99.90;;;;;;4916621;29;20195;-70
2022/03/07 08:39:17;;;;;;;12.70;2.53;;;23.40;99.90;;;;;;4917383;29;20723;-72
2022/03/07 08:41:44;;;;;;;6.80;2.07;;;23.20;99.90;;;;;;4918225;29;20202;-73
2022/03/07 08:44:12;;;;;;;7.10;1.90;;;23.00;99.90;;;;;;4917627;29;20185;-72
2022/03/07 08:46:41;;;;;;;9.37;2.03;;;22.90;99.90;;;;;;4917398;29;20181;-72
2022/03/07 08:49:08;;;;;;;10.83;2.40;;;22.80;99.90;;;;;;4917526;29;20185;-70
2022/03/07 08:51:37;;;;;;;7.10;2.60;;;22.70;99.90;;;;;;4916577;29;20608;-71
2022/03/07 08:54:04;;;;;;;8.50;1.90;;;22.80;99.90;;;;;;4917687;29;20212;-71
2022/03/07 08:56:32;;;;;;;7.07;2.47;;;22.80;99.90;;;;;;4917031;29;20228;-72
2022/03/07 08:59:00;;;;;;;11.67;2.57;;;22.80;99.90;;;;;;4917378;29;20639;-72
2022/03/07 09:01:27;;;;;;;7.03;2.40;;;22.80;99.90;;;;;;4917651;29;20197;-72
2022/03/07 09:03:56;;;;;;;8.73;2.17;;;22.80;99.90;;;;;;4917278;29;20185;-71
2022/03/07 09:06:24;;;;;;;8.23;2.13;;;22.70;99.90;;;;;;4917687;29;20182;-71
2022/03/07 09:08:52;;;;;;;8.70;2.10;;;22.80;99.90;;;;;;4917255;29;20196;-71
2022/03/07 09:11:20;;;;;;;10.40;2.30;;;22.80;99.90;;;;;;4917302;29;20177;-72
2022/03/07 09:13:47;;;;;;;4.73;1.90;;;22.80;99.90;;;;;;4917102;29;20208;-72
2022/03/07 09:16:15;;;;;;;9.40;2.57;;;22.80;99.90;;;;;;4916968;29;20658;-71
2022/03/07 09:18:43;;;;;;;7.20;1.80;;;22.80;99.90;;;;;;4917444;29;20188;-71
2022/03/07 09:21:11;;;;;;;5.67;1.60;;;22.80;99.90;;;;;;4917403;29;20227;-72
2022/03/07 09:23:39;;;;;;;8.73;1.50;;;22.90;99.90;;;;;;4917157;29;20639;-72
2022/03/07 09:26:09;;;;;;;7.63;1.90;;;22.80;99.90;;;;;;4916836;29;20212;-72
2022/03/07 09:28:37;;;;;;;6.73;1.70;;;22.80;99.90;;;;;;4917354;29;20672;-72
2022/03/07 09:31:06;;;;;;;5.87;1.40;;;22.80;99.90;;;;;;4915984;29;20228;-71
2022/03/07 09:33:34;;;;;;;4.47;1.10;;;22.80;99.90;;;;;;4917041;29;20212;-72
2022/03/07 09:36:01;;;;;;;5.77;1.00;;;22.60;99.90;;;;;;4916632;29;20187;-71
2022/03/07 09:38:29;;;;;;;1.93;0.87;;;22.40;99.90;;;;;;4932750;28;20292;-71
2022/03/07 09:40:58;;;;;;;3.30;1.00;;;22.40;99.90;;;;;;4930247;28;20256;-70
2022/03/07 09:43:25;;;;;;;1.03;0.50;;;22.20;99.90;;;;;;4937566;29;20176;-72
2022/03/07 09:45:53;;;;;;;0.93;0.40;;;22.10;99.90;;;;;;4922338;29;20188;-72
2022/03/07 09:48:24;;;;;;;2.83;0.73;;;22.00;99.90;;;;;;4934005;28;20204;-72
2022/03/07 09:51:40;;;;;;;2.27;0.70;;;22.00;99.90;;;;;;4917009;29;20267;-72
2022/03/07 09:54:08;;;;;;;1.77;0.60;;;22.00;99.90;;;;;;4916562;29;20190;-72
2022/03/07 09:56:36;;;;;;;2.27;0.70;;;22.00;99.90;;;;;;4916789;29;20643;-72
2022/03/07 09:59:06;;;;;;;2.00;0.80;;;22.00;99.90;;;;;;4915547;29;20540;-72
2022/03/07 10:01:36;;;;;;;2.13;0.80;;;22.00;99.90;;;;;;4917024;29;20197;-72
2022/03/07 10:04:12;;;;;;;3.40;0.90;;;22.00;99.90;;;;;;4916882;29;20191;-72
2022/03/07 10:06:50;;;;;;;3.37;1.30;;;22.10;99.90;;;;;;4916756;29;20177;-71
2022/03/07 10:12:14;;;;;;;3.40;1.30;;;22.10;99.90;;;;;;4916871;29;20233;-71
2022/03/07 10:14:46;;;;;;;2.33;1.00;;;22.00;99.90;;;;;;4916762;29;20189;-72
2022/03/07 10:17:31;;;;;;;4.83;1.30;;;22.00;99.90;;;;;;4916989;29;20212;-72
2022/03/07 10:20:06;;;;;;;3.07;1.50;;;22.00;99.90;;;;;;4916855;29;20748;-72
2022/03/07 10:22:34;;;;;;;5.00;1.73;;;22.00;99.90;;;;;;4916102;29;20182;-72
2022/03/07 10:25:07;;;;;;;2.20;1.40;;;22.00;99.90;;;;;;4916525;29;20182;-72
2022/03/07 10:27:41;;;;;;;6.37;1.77;;;22.00;99.90;;;;;;4919237;29;20181;-72
2022/03/07 10:30:26;;;;;;;6.03;1.93;;;22.00;99.90;;;;;;4920619;29;20548;-72
2022/03/07 10:33:00;;;;;;;3.33;1.30;;;22.00;99.90;;;;;;4919482;29;20213;-70
2022/03/07 10:35:37;;;;;;;3.60;1.30;;;22.00;99.90;;;;;;4918274;29;20191;-71
2022/03/07 10:38:11;;;;;;;5.13;1.33;;;22.10;99.90;;;;;;4919445;29;20189;-70
2022/03/07 10:40:47;;;;;;;3.97;1.50;;;22.10;99.90;;;;;;4919474;29;20674;-70
2022/03/07 10:43:15;;;;;;;4.00;1.23;;;22.10;99.90;;;;;;4917808;29;20192;-71
2022/03/07 10:45:47;;;;;;;3.97;1.13;;;22.10;99.90;;;;;;4917334;29;20685;-71
2022/03/07 10:48:15;;;;;;;3.60;1.23;;;22.10;99.90;;;;;;4919496;29;20189;-72
2022/03/07 10:50:57;;;;;;;2.27;1.00;;;22.00;99.90;;;;;;4919920;29;20184;-73
2022/03/07 10:53:26;;;;;;;3.20;1.07;;;22.10;99.90;;;;;;4919507;29;20713;-72
2022/03/07 10:55:56;;;;;;;2.60;0.70;;;22.00;99.90;;;;;;4918606;29;20185;-72
2022/03/07 10:58:24;;;;;;;3.17;0.80;;;22.10;99.90;;;;;;4919577;29;20310;-72
2022/03/07 11:01:04;;;;;;;1.40;0.80;;;22.10;99.90;;;;;;4919881;29;20220;-72
2022/03/07 11:03:34;;;;;;;2.37;0.60;;;22.10;99.90;;;;;;4919515;29;20632;-72
2022/03/07 11:06:03;;;;;;;1.10;0.50;;;22.00;99.90;;;;;;4919637;29;20194;-72
2022/03/07 11:08:31;;;;;;;0.90;0.47;;;22.00;99.90;;;;;;4919870;29;20632;-72
2022/03/07 11:11:01;;;;;;;2.53;0.70;;;22.00;99.90;;;;;;4919689;29;20651;-72
2022/03/07 11:13:30;;;;;;;2.77;0.60;;;22.00;99.90;;;;;;4919203;29;20644;-71
2022/03/07 11:16:01;;;;;;;1.87;0.50;;;22.00;99.90;;;;;;4919414;29;20553;-72
2022/03/07 11:18:30;;;;;;;1.40;0.50;;;22.00;99.90;;;;;;4919509;29;20182;-72
2022/03/07 11:20:59;;;;;;;3.00;0.60;;;22.00;99.90;;;;;;4919494;29;20221;-72
2022/03/07 11:23:27;;;;;;;1.50;0.50;;;22.00;99.90;;;;;;4919224;29;20238;-72
2022/03/07 11:25:58;;;;;;;1.90;0.57;;;22.00;99.90;;;;;;4919313;29;20184;-72
2022/03/07 11:28:28;;;;;;;2.93;0.67;;;22.00;99.90;;;;;;4919233;29;20266;-71
2022/03/07 11:30:56;;;;;;;0.47;0.30;;;22.00;99.90;;;;;;4919214;29;20200;-71
2022/03/07 11:33:33;;;;;;;3.17;0.80;;;21.90;99.90;;;;;;4918863;29;20186;-70
2022/03/07 11:36:03;;;;;;;1.23;0.50;;;21.90;99.90;;;;;;4919139;29;20185;-72
2022/03/07 11:38:32;;;;;;;2.63;0.80;;;21.90;99.90;;;;;;4917734;29;20178;-71
2022/03/07 11:41:12;;;;;;;3.37;0.40;;;21.80;99.90;;;;;;4918969;29;20216;-71
2022/03/07 11:43:56;;;;;;;1.43;0.33;;;21.90;99.90;;;;;;4919109;29;20503;-72
2022/03/07 11:46:29;;;;;;;3.53;0.70;;;21.80;99.90;;;;;;4918721;29;20281;-72
2022/03/07 11:48:57;;;;;;;1.30;0.60;;;21.70;99.90;;;;;;4919091;29;20178;-72
2022/03/07 11:51:30;;;;;;;1.90;0.60;;;21.80;99.90;;;;;;4918791;29;20178;-71
2022/03/07 12:00:44;;;;;;;2.10;0.60;;;21.80;99.90;;;;;;4918215;29;20232;-73
2022/03/07 12:03:22;;;;;;;0.90;0.60;;;21.70;99.90;;;;;;4918583;29;20197;-71
2022/03/07 12:06:03;;;;;;;2.63;0.80;;;21.70;99.90;;;;;;4918627;29;20178;-71
2022/03/07 12:08:41;;;;;;;3.03;1.27;;;21.80;99.90;;;;;;4918650;29;20189;-71
2022/03/07 12:11:10;;;;;;;3.67;0.80;;;21.70;99.90;;;;;;4918582;29;20713;-71
2022/03/07 12:13:48;;;;;;;3.33;0.90;;;21.70;99.90;;;;;;4918423;29;20189;-70
2022/03/07 12:16:30;;;;;;;3.57;0.77;;;21.70;99.90;;;;;;4918478;29;20181;-71
2022/03/07 12:19:11;;;;;;;1.57;0.67;;;21.70;99.90;;;;;;4918467;29;20579;-71
2022/03/07 12:21:41;;;;;;;2.17;0.73;;;21.80;99.90;;;;;;4918052;29;20201;-71
2022/03/07 12:24:11;;;;;;;5.40;0.90;;;21.70;99.90;;;;;;4918351;29;20595;-70
2022/03/07 12:26:50;;;;;;;6.37;1.00;;;21.70;99.90;;;;;;4918243;29;20183;-70
2022/03/07 12:29:21;;;;;;;2.57;0.80;;;21.70;99.90;;;;;;4918289;29;20290;-70
2022/03/07 12:31:54;;;;;;;2.20;0.63;;;21.70;99.90;;;;;;4899547;29;20188;-71
2022/03/07 12:34:30;;;;;;;4.77;1.27;;;21.70;99.90;;;;;;4897995;29;20192;-71
2022/03/07 12:37:20;;;;;;;1.53;0.90;;;21.70;99.90;;;;;;4899284;29;20188;-71
2022/03/07 12:39:57;;;;;;;7.83;0.77;;;21.70;99.90;;;;;;4916120;29;20217;-71
2022/03/07 12:42:30;;;;;;;1.77;0.93;;;21.70;99.90;;;;;;4918057;29;20204;-71
2022/03/07 12:45:04;;;;;;;2.30;1.03;;;21.70;99.90;;;;;;4918034;29;20264;-70
2022/03/07 12:47:35;;;;;;;1.80;0.80;;;21.70;99.90;;;;;;4917774;29;20195;-70
2022/03/07 12:50:06;;;;;;;1.57;0.80;;;21.60;99.90;;;;;;4916156;29;20543;-71
2022/03/07 12:52:36;;;;;;;1.60;1.00;;;21.70;99.90;;;;;;4917694;29;20193;-70
2022/03/07 12:55:10;;;;;;;2.07;0.83;;;21.70;99.90;;;;;;4917650;29;20187;-70
2022/03/07 12:57:37;;;;;;;2.10;0.83;;;21.70;99.90;;;;;;4917634;29;20237;-70
2022/03/07 13:00:07;;;;;;;3.33;1.20;;;21.70;99.90;;;;;;4916065;29;20264;-70
2022/03/07 13:02:44;;;;;;;2.50;0.90;;;21.70;99.90;;;;;;4917670;29;20650;-70
2022/03/07 13:05:17;;;;;;;2.40;0.80;;;21.70;99.90;;;;;;4917375;29;20284;-70